createdAt,value
2022-12-05T00:01:28.866Z,9.90
2022-12-05T00:03:58.502Z,10.00
2022-12-05T00:06:27.551Z,9.90
2022-12-05T00:08:54.850Z,9.90
2022-12-05T00:11:24.611Z,10.00
2022-12-05T00:13:54.477Z,10.00
2022-12-05T00:16:24.155Z,10.10
2022-12-05T00:18:51.438Z,10.10
2022-12-05T00:21:23.819Z,10.10
2022-12-05T00:23:52.258Z,10.00
2022-12-05T00:26:19.748Z,10.10
2022-12-05T00:28:46.862Z,10.10
2022-12-05T00:31:18.982Z,10.10
2022-12-05T00:33:46.374Z,10.10
2022-12-05T00:36:22.428Z,10.10
2022-12-05T00:38:49.928Z,10.20
2022-12-05T00:41:19.494Z,10.20
2022-12-05T00:43:46.696Z,10.20
2022-12-05T00:46:17.116Z,10.10
2022-12-05T00:48:44.374Z,10.10
2022-12-05T00:51:17.309Z,10.10
2022-12-05T00:53:45.024Z,10.10
2022-12-05T00:56:18.522Z,10.20
2022-12-05T00:58:45.673Z,10.20
2022-12-05T01:01:21.767Z,10.20
2022-12-05T01:03:49.028Z,10.20
2022-12-05T01:06:16.392Z,10.20
2022-12-05T01:08:43.485Z,10.20
2022-12-05T01:11:11.612Z,10.20
2022-12-05T01:13:38.454Z,10.30
2022-12-05T01:16:05.852Z,10.20
2022-12-05T01:18:32.753Z,10.20
2022-12-05T01:20:59.549Z,10.20
2022-12-05T01:23:26.387Z,10.20
2022-12-05T01:25:53.746Z,10.20
2022-12-05T01:28:20.586Z,10.20
2022-12-05T01:30:49.322Z,10.10
2022-12-05T01:33:17.035Z,10.10
2022-12-05T01:35:44.443Z,10.20
2022-12-05T01:38:13.130Z,10.10
2022-12-05T01:40:40.660Z,10.10
2022-12-05T01:43:18.190Z,10.10
2022-12-05T01:45:46.500Z,10.10
2022-12-05T01:48:24.307Z,10.10
2022-12-05T01:50:51.569Z,10.10
2022-12-05T01:53:19.068Z,10.10
2022-12-05T01:55:48.624Z,10.10
2022-12-05T01:58:16.083Z,10.10
2022-12-05T02:00:43.952Z,10.10
2022-12-05T02:03:18.318Z,10.10
2022-12-05T02:05:48.388Z,10.10
2022-12-05T02:08:15.451Z,10.10
2022-12-05T02:10:46.424Z,10.20
2022-12-05T02:13:40.507Z,10.20
2022-12-05T02:16:13.398Z,10.20
2022-12-05T02:19:05.884Z,10.20
2022-12-05T02:21:44.861Z,10.20
2022-12-05T02:24:27.014Z,10.20
2022-12-05T02:27:19.509Z,10.20
2022-12-05T02:29:58.442Z,10.20
2022-12-05T02:32:39.051Z,10.20
2022-12-05T02:35:26.934Z,10.20
2022-12-05T02:38:05.602Z,10.20
2022-12-05T02:40:41.730Z,10.20
2022-12-05T02:43:25.301Z,10.20
2022-12-05T02:45:57.005Z,10.30
2022-12-05T02:48:29.533Z,10.30
2022-12-05T02:50:58.783Z,10.20
2022-12-05T02:53:28.441Z,10.20
2022-12-05T02:55:56.064Z,10.30
2022-12-05T02:58:34.415Z,10.30
2022-12-05T03:01:02.430Z,10.30
2022-12-05T03:03:30.514Z,10.30
2022-12-05T03:06:02.675Z,10.30
2022-12-05T03:08:39.657Z,10.30
2022-12-05T03:11:06.861Z,10.30
2022-12-05T03:13:48.806Z,10.30
2022-12-05T03:16:22.697Z,10.50
2022-12-05T03:18:55.603Z,10.40
2022-12-05T03:21:33.835Z,10.40
2022-12-05T03:24:04.437Z,10.50
2022-12-05T03:26:37.989Z,10.40
2022-12-05T03:29:22.801Z,10.50
2022-12-05T03:32:09.870Z,10.50
2022-12-05T03:34:50.026Z,10.40
2022-12-05T03:37:28.442Z,10.50
2022-12-05T03:40:07.480Z,10.60
2022-12-05T03:42:37.022Z,10.60
2022-12-05T03:45:16.869Z,10.60
2022-12-05T03:48:16.392Z,10.60
2022-12-05T03:50:46.512Z,10.60
2022-12-05T03:53:46.458Z,10.70
2022-12-05T03:56:17.816Z,10.70
2022-12-05T03:58:53.772Z,10.60
2022-12-05T04:01:23.334Z,10.60
2022-12-05T04:03:57.060Z,10.60
2022-12-05T04:06:33.913Z,10.70
2022-12-05T04:09:41.669Z,10.70
2022-12-05T04:12:13.933Z,10.70
2022-12-05T04:14:45.300Z,10.60
2022-12-05T04:17:39.721Z,10.70
2022-12-05T04:20:38.564Z,10.60
2022-12-05T04:23:07.357Z,10.60
2022-12-05T04:25:47.082Z,10.50
2022-12-05T04:28:34.377Z,10.60
2022-12-05T04:31:36.342Z,10.60
2022-12-05T04:34:07.024Z,10.60
2022-12-05T04:36:44.982Z,10.50
2022-12-05T04:39:30.466Z,10.50
2022-12-05T04:42:14.586Z,10.50
2022-12-05T04:44:47.895Z,10.40
2022-12-05T04:47:17.246Z,10.40
2022-12-05T04:49:49.236Z,10.50
2022-12-05T04:52:19.354Z,10.50
2022-12-05T04:54:51.965Z,10.60
2022-12-05T04:57:21.271Z,10.50
2022-12-05T04:59:48.458Z,10.70
2022-12-05T05:02:20.423Z,10.50
2022-12-05T05:04:53.256Z,10.50
2022-12-05T05:07:21.636Z,10.60
2022-12-05T05:09:48.477Z,10.50
2022-12-05T05:12:18.982Z,10.60
2022-12-05T05:14:46.058Z,10.60
2022-12-05T05:17:12.895Z,10.60
2022-12-05T05:19:39.683Z,10.60
2022-12-05T05:22:06.433Z,10.70
2022-12-05T05:24:33.168Z,10.60
2022-12-05T05:26:59.960Z,10.50
2022-12-05T05:29:26.804Z,10.50
2022-12-05T05:31:53.577Z,10.60
2022-12-05T05:34:20.318Z,10.60
2022-12-05T05:36:52.181Z,10.60
2022-12-05T05:39:19.345Z,10.60
2022-12-05T05:41:46.034Z,10.60
2022-12-05T05:44:12.690Z,10.60
2022-12-05T05:46:39.679Z,10.50
2022-12-05T05:49:06.512Z,10.70
2022-12-05T05:51:33.432Z,10.80
2022-12-05T05:54:00.507Z,10.80
2022-12-05T05:56:27.863Z,10.80
2022-12-05T05:59:00.296Z,10.70
2022-12-05T06:01:27.485Z,10.80
2022-12-05T06:03:54.552Z,10.80
2022-12-05T06:06:22.422Z,10.80
2022-12-05T06:08:49.233Z,10.90
2022-12-05T06:11:25.818Z,10.90
2022-12-05T06:13:54.806Z,10.80
2022-12-05T06:16:22.380Z,10.90
2022-12-05T06:18:50.112Z,10.90
2022-12-05T06:21:17.696Z,10.90
2022-12-05T06:23:44.840Z,10.90
2022-12-05T06:26:14.247Z,10.90
2022-12-05T06:28:41.429Z,10.90
2022-12-05T06:31:10.551Z,10.90
2022-12-05T06:33:37.794Z,11.00
2022-12-05T06:36:07.400Z,11.00
2022-12-05T06:38:37.981Z,11.00
2022-12-05T06:41:11.392Z,11.10
2022-12-05T06:43:38.133Z,11.10
2022-12-05T06:46:06.987Z,11.10
2022-12-05T06:48:33.921Z,11.10
2022-12-05T06:51:00.938Z,11.10
2022-12-05T06:53:27.997Z,11.00
2022-12-05T06:56:00.779Z,11.00
2022-12-05T06:58:28.249Z,11.10
2022-12-05T07:01:13.993Z,11.10
2022-12-05T07:03:40.816Z,11.10
2022-12-05T07:06:08.220Z,11.10
2022-12-05T07:08:35.933Z,11.10
2022-12-05T07:11:03.811Z,11.10
2022-12-05T07:13:30.593Z,11.20
2022-12-05T07:15:59.108Z,11.20
2022-12-05T07:18:26.793Z,11.10
2022-12-05T07:21:14.488Z,11.20
2022-12-05T07:23:42.899Z,11.20
2022-12-05T07:26:12.764Z,11.30
2022-12-05T07:28:39.656Z,11.40
2022-12-05T07:31:12.682Z,11.40
2022-12-05T07:33:39.843Z,11.40
2022-12-05T07:36:09.963Z,11.30
2022-12-05T07:38:37.579Z,11.40
2022-12-05T07:41:13.313Z,11.40
2022-12-05T07:43:41.317Z,11.50
2022-12-05T07:46:11.317Z,11.50
2022-12-05T07:48:38.514Z,11.50
2022-12-05T07:51:07.354Z,11.40
2022-12-05T07:53:34.770Z,11.40
2022-12-05T07:56:03.957Z,11.50
2022-12-05T07:58:31.465Z,11.50
2022-12-05T08:01:05.972Z,11.40
2022-12-05T08:03:32.679Z,11.50
2022-12-05T08:06:04.846Z,11.50
2022-12-05T08:08:31.642Z,11.50
2022-12-05T08:11:06.987Z,11.50
2022-12-05T08:13:34.139Z,11.50
2022-12-05T08:16:02.931Z,11.50
2022-12-05T08:18:30.124Z,11.40
2022-12-05T08:21:09.300Z,11.40
2022-12-05T08:23:37.508Z,11.50
2022-12-05T08:26:15.901Z,11.60
2022-12-05T08:28:44.235Z,11.60
2022-12-05T08:31:16.508Z,11.50
2022-12-05T08:33:44.517Z,11.60
2022-12-05T08:36:13.551Z,11.60
2022-12-05T08:38:40.496Z,11.60
2022-12-05T08:41:18.125Z,11.70
2022-12-05T08:43:45.139Z,11.70
2022-12-05T08:46:12.580Z,11.80
2022-12-05T08:48:39.535Z,11.70
2022-12-05T08:51:08.330Z,11.80
2022-12-05T08:53:44.062Z,11.80
2022-12-05T08:56:12.583Z,11.80
2022-12-05T08:58:40.548Z,11.80
2022-12-05T09:01:09.102Z,11.90
2022-12-05T09:03:36.368Z,11.90
2022-12-05T09:06:09.940Z,11.90
2022-12-05T09:08:37.844Z,12.00
2022-12-05T09:11:09.082Z,12.00
2022-12-05T09:13:36.438Z,12.00
2022-12-05T09:16:12.340Z,12.00
2022-12-05T09:18:39.717Z,12.00
2022-12-05T09:21:11.358Z,11.90
2022-12-05T09:23:38.350Z,11.90
2022-12-05T09:26:07.626Z,11.90
2022-12-05T09:28:34.651Z,11.90
2022-12-05T09:31:04.305Z,12.00
2022-12-05T09:33:33.934Z,12.00
2022-12-05T09:36:14.347Z,12.00
2022-12-05T09:38:41.536Z,12.00
2022-12-05T09:41:51.529Z,12.10
2022-12-05T09:44:42.409Z,12.10
2022-12-05T09:47:21.379Z,12.10
2022-12-05T09:49:53.530Z,12.10
2022-12-05T09:52:28.975Z,12.10
2022-12-05T09:54:57.177Z,12.10
2022-12-05T09:57:35.362Z,12.10
2022-12-05T10:00:05.945Z,12.10
2022-12-05T10:02:46.758Z,12.00
2022-12-05T10:05:29.599Z,12.10
2022-12-05T10:08:38.453Z,12.10
2022-12-05T10:11:17.535Z,12.10
2022-12-05T10:14:08.185Z,12.10
2022-12-05T10:16:52.326Z,12.10
2022-12-05T10:19:28.806Z,12.20
2022-12-05T10:21:58.922Z,12.10
2022-12-05T10:24:46.194Z,12.20
2022-12-05T10:27:39.495Z,12.10
2022-12-05T10:30:15.989Z,12.10
2022-12-05T10:32:48.303Z,12.20
2022-12-05T10:35:36.592Z,12.20
2022-12-05T10:38:23.776Z,12.30
2022-12-05T10:40:54.085Z,12.20
2022-12-05T10:43:29.388Z,12.30
2022-12-05T10:45:56.794Z,12.30
2022-12-05T10:48:24.911Z,12.30
2022-12-05T10:50:54.467Z,12.40
2022-12-05T10:53:32.373Z,12.40
2022-12-05T10:58:57.804Z,12.50
2022-12-05T11:01:26.213Z,12.50
2022-12-05T11:03:59.041Z,12.50
2022-12-05T11:06:30.866Z,12.60
2022-12-05T11:09:25.353Z,12.60
2022-12-05T11:12:23.486Z,12.50
2022-12-05T11:15:01.166Z,12.50
2022-12-05T11:17:35.616Z,12.50
2022-12-05T11:20:23.487Z,12.50
2022-12-05T11:22:52.532Z,12.50
2022-12-05T11:25:34.072Z,12.50
2022-12-05T11:28:20.783Z,12.50
2022-12-05T11:31:16.429Z,12.50
2022-12-05T11:33:43.494Z,12.50
2022-12-05T11:36:22.064Z,12.50
2022-12-05T11:38:49.075Z,12.50
2022-12-05T11:41:37.498Z,12.50
2022-12-05T11:44:47.540Z,12.60
2022-12-05T11:47:46.539Z,12.50
2022-12-05T11:50:22.426Z,12.50
2022-12-05T11:53:04.105Z,12.60
2022-12-05T11:55:37.400Z,12.60
2022-12-05T11:58:34.810Z,12.50
2022-12-05T12:01:24.206Z,12.50
2022-12-05T12:04:03.109Z,12.40
2022-12-05T12:07:03.921Z,12.30
2022-12-05T12:09:54.751Z,12.40
2022-12-05T12:12:33.216Z,12.40
2022-12-05T12:15:27.972Z,12.40
2022-12-05T12:18:02.456Z,12.40
2022-12-05T12:20:41.412Z,12.40
2022-12-05T12:23:20.273Z,12.40
2022-12-05T12:26:10.223Z,12.50
2022-12-05T12:28:42.349Z,12.70
2022-12-05T12:31:45.693Z,12.60
2022-12-05T12:34:27.935Z,12.70
2022-12-05T12:37:21.958Z,12.70
2022-12-05T12:39:58.866Z,12.70
2022-12-05T12:42:48.526Z,12.70
2022-12-05T12:45:45.944Z,12.70
2022-12-05T12:48:41.607Z,12.70
2022-12-05T12:51:12.659Z,12.70
2022-12-05T12:54:06.471Z,12.60
2022-12-05T12:56:48.368Z,12.60
2022-12-05T12:59:43.268Z,12.50
2022-12-05T13:02:14.398Z,12.50
2022-12-05T13:04:59.311Z,12.50
2022-12-05T13:07:39.983Z,12.50
2022-12-05T13:10:19.383Z,12.50
2022-12-05T13:12:46.891Z,12.50
2022-12-05T13:15:33.386Z,12.50
2022-12-05T13:18:01.261Z,12.60
2022-12-05T13:20:32.585Z,12.50
2022-12-05T13:23:04.719Z,12.50
2022-12-05T13:25:39.052Z,12.50
2022-12-05T13:28:25.788Z,12.60
2022-12-05T13:31:01.430Z,12.50
2022-12-05T13:33:48.489Z,12.40
2022-12-05T13:36:41.038Z,12.40
2022-12-05T13:39:38.117Z,12.40
2022-12-05T13:42:17.556Z,12.30
2022-12-05T13:45:07.352Z,12.30
2022-12-05T13:47:43.189Z,12.40
2022-12-05T13:50:43.614Z,12.30
2022-12-05T13:53:48.556Z,12.20
2022-12-05T13:56:15.256Z,12.20
2022-12-05T13:58:55.460Z,12.10
2022-12-05T14:01:26.093Z,12.10
2022-12-05T14:03:53.028Z,12.10
2022-12-05T14:06:38.537Z,12.10
2022-12-05T14:09:48.820Z,12.10
2022-12-05T14:12:15.670Z,12.10
2022-12-05T14:14:57.574Z,12.10
2022-12-05T14:17:42.533Z,12.10
2022-12-05T14:20:57.292Z,12.10
2022-12-05T14:23:36.013Z,12.10
2022-12-05T14:26:53.903Z,12.10
2022-12-05T14:29:41.534Z,12.20
2022-12-05T14:32:34.846Z,12.10
2022-12-05T14:35:05.275Z,12.20
2022-12-05T14:37:34.625Z,12.20
2022-12-05T14:40:04.615Z,12.10
2022-12-05T14:42:52.477Z,12.10
2022-12-05T14:45:28.538Z,12.10
2022-12-05T14:48:23.131Z,12.20
2022-12-05T14:50:52.329Z,12.20
2022-12-05T14:53:39.395Z,12.20
2022-12-05T14:56:24.977Z,12.20
2022-12-05T14:59:17.833Z,12.10
2022-12-05T15:01:48.794Z,12.20
2022-12-05T15:04:24.402Z,12.10
2022-12-05T15:06:54.080Z,12.20
2022-12-05T15:09:58.851Z,12.30
2022-12-05T15:12:28.210Z,12.20
2022-12-05T15:15:00.010Z,12.10
2022-12-05T15:17:35.925Z,12.20
2022-12-05T15:20:17.257Z,12.10
2022-12-05T15:22:43.984Z,12.20
2022-12-05T15:25:15.398Z,12.10
2022-12-05T15:27:53.057Z,12.10
2022-12-05T15:30:20.045Z,12.10
2022-12-05T15:32:46.832Z,12.00
2022-12-05T15:35:16.490Z,12.10
2022-12-05T15:38:01.817Z,12.10
2022-12-05T15:40:37.473Z,12.10
2022-12-05T15:43:31.241Z,12.10
2022-12-05T15:46:08.946Z,12.00
2022-12-05T15:48:35.814Z,12.00
2022-12-05T15:51:04.363Z,12.00
2022-12-05T15:53:50.971Z,12.00
2022-12-05T15:56:47.192Z,12.00
2022-12-05T15:59:47.053Z,12.00
2022-12-05T16:02:22.710Z,11.90
2022-12-05T16:04:53.197Z,11.90
2022-12-05T16:07:21.422Z,12.00
2022-12-05T16:09:48.726Z,12.00
2022-12-05T16:12:42.655Z,12.00
2022-12-05T16:15:28.925Z,12.00
2022-12-05T16:17:58.523Z,12.00
2022-12-05T16:20:32.980Z,12.00
2022-12-05T16:23:23.067Z,12.00
2022-12-05T16:25:50.127Z,12.00
2022-12-05T16:28:19.623Z,12.00
2022-12-05T16:31:01.966Z,12.00
2022-12-05T16:33:30.203Z,12.00
2022-12-05T16:36:06.928Z,12.00
2022-12-05T16:38:33.880Z,12.00
2022-12-05T16:41:03.019Z,12.00
2022-12-05T16:43:33.125Z,12.00
2022-12-05T16:46:11.783Z,12.10
2022-12-05T16:48:40.905Z,12.10
2022-12-05T16:51:18.660Z,12.10
2022-12-05T16:53:48.468Z,12.10
2022-12-05T16:56:27.807Z,12.10
2022-12-05T16:58:54.650Z,12.10
2022-12-05T17:01:23.764Z,12.10
2022-12-05T17:03:51.390Z,12.00
2022-12-05T17:06:18.500Z,12.10
2022-12-05T17:08:45.299Z,12.00
2022-12-05T17:11:28.825Z,12.00
2022-12-05T17:13:57.113Z,12.10
2022-12-05T17:16:26.452Z,12.00
2022-12-05T17:18:53.450Z,12.00
2022-12-05T17:21:23.979Z,12.00
2022-12-05T17:23:50.694Z,12.00
2022-12-05T17:26:19.498Z,12.00
2022-12-05T17:28:46.370Z,12.00
2022-12-05T17:31:17.102Z,12.00
2022-12-05T17:33:47.321Z,12.10
2022-12-05T17:36:14.255Z,12.10
2022-12-05T17:38:41.300Z,12.10
2022-12-05T17:41:08.402Z,12.10
2022-12-05T17:43:35.287Z,12.10
2022-12-05T17:46:02.896Z,12.10
2022-12-05T17:48:29.673Z,12.10
2022-12-05T17:50:57.880Z,12.10
2022-12-05T17:53:24.711Z,12.10
2022-12-05T17:55:52.079Z,12.10
2022-12-05T17:58:18.759Z,12.00
2022-12-05T18:00:46.744Z,12.10
2022-12-05T18:03:16.177Z,12.10
2022-12-05T18:05:43.908Z,12.10
2022-12-05T18:08:11.404Z,12.10
2022-12-05T18:10:42.718Z,12.10
2022-12-05T18:13:10.873Z,12.10
2022-12-05T18:15:42.707Z,12.00
2022-12-05T18:18:13.529Z,12.10
2022-12-05T18:20:40.259Z,12.10
2022-12-05T18:23:07.099Z,12.00
2022-12-05T18:25:33.842Z,12.10
2022-12-05T18:28:00.531Z,12.10
2022-12-05T18:30:27.171Z,12.10
2022-12-05T18:32:54.087Z,12.20
2022-12-05T18:35:40.061Z,12.20
2022-12-05T18:38:08.759Z,12.20
2022-12-05T18:40:35.579Z,12.10
2022-12-05T18:43:02.375Z,12.10
2022-12-05T18:45:29.337Z,12.10
2022-12-05T18:48:04.579Z,12.20
2022-12-05T18:50:36.937Z,12.10
2022-12-05T18:53:03.764Z,12.10
2022-12-05T18:55:51.843Z,12.10
2022-12-05T18:58:17.283Z,12.10
2022-12-05T19:00:44.268Z,12.10
2022-12-05T19:03:11.015Z,12.10
2022-12-05T19:05:37.958Z,12.10
2022-12-05T19:08:04.924Z,12.10
2022-12-05T19:10:31.558Z,12.10
2022-12-05T19:12:58.224Z,12.10
2022-12-05T19:15:25.589Z,12.10
2022-12-05T19:17:52.276Z,12.20
2022-12-05T19:20:18.959Z,12.10
2022-12-05T19:22:45.691Z,12.10
2022-12-05T19:25:12.495Z,12.10
2022-12-05T19:27:39.390Z,12.00
2022-12-05T19:30:10.084Z,12.00
2022-12-05T19:32:40.516Z,12.00
2022-12-05T19:35:07.992Z,12.10
2022-12-05T19:37:35.549Z,12.10
2022-12-05T19:40:02.376Z,12.10
2022-12-05T19:42:29.662Z,12.00
2022-12-05T19:44:56.659Z,12.10
2022-12-05T19:47:23.655Z,12.10
2022-12-05T19:49:50.500Z,12.20
2022-12-05T19:52:18.033Z,12.10
2022-12-05T19:54:45.397Z,12.10
2022-12-05T19:57:12.477Z,12.10
2022-12-05T19:59:39.303Z,12.10
2022-12-05T20:02:06.066Z,12.10
2022-12-05T20:04:32.896Z,12.10
2022-12-05T20:07:00.088Z,12.20
2022-12-05T20:09:27.035Z,12.20
2022-12-05T20:11:55.990Z,12.10
2022-12-05T20:14:25.286Z,12.10
2022-12-05T20:16:52.800Z,12.10
2022-12-05T20:19:19.731Z,12.10
2022-12-05T20:21:46.930Z,12.00
2022-12-05T20:24:13.724Z,12.10
2022-12-05T20:26:42.870Z,12.10
2022-12-05T20:29:10.274Z,12.10
2022-12-05T20:31:42.546Z,12.10
2022-12-05T20:34:13.605Z,12.10
2022-12-05T20:36:40.736Z,12.10
2022-12-05T20:39:15.678Z,12.10
2022-12-05T20:41:43.477Z,12.00
2022-12-05T20:44:11.761Z,12.00
2022-12-05T20:46:38.544Z,12.00
2022-12-05T20:49:05.248Z,12.00
2022-12-05T20:51:34.033Z,12.00
2022-12-05T20:54:02.017Z,12.00
2022-12-05T20:56:32.247Z,12.10
2022-12-05T20:59:01.888Z,12.00
2022-12-05T21:01:30.852Z,12.00
2022-12-05T21:03:58.281Z,12.10
2022-12-05T21:06:33.422Z,12.10
2022-12-05T21:09:00.932Z,12.00
2022-12-05T21:11:28.986Z,12.10
2022-12-05T21:13:57.682Z,12.00
2022-12-05T21:16:24.878Z,12.10
2022-12-05T21:18:52.525Z,12.00
2022-12-05T21:21:24.551Z,12.10
2022-12-05T21:23:57.733Z,12.10
2022-12-05T21:26:26.949Z,12.10
2022-12-05T21:28:54.562Z,12.10
2022-12-05T21:31:28.007Z,12.00
2022-12-05T21:33:57.517Z,11.90
2022-12-05T21:36:25.686Z,12.00
2022-12-05T21:38:56.244Z,12.00
2022-12-05T21:41:24.840Z,12.00
2022-12-05T21:43:54.875Z,12.00
2022-12-05T21:46:25.897Z,12.10
2022-12-05T21:48:53.367Z,12.10
2022-12-05T21:51:20.951Z,12.20
2022-12-05T21:53:47.923Z,12.20
2022-12-05T21:56:16.966Z,12.10
2022-12-05T21:58:45.192Z,12.10
2022-12-05T22:01:21.771Z,12.10
2022-12-05T22:03:54.699Z,12.20
2022-12-05T22:06:21.900Z,12.10
2022-12-05T22:08:48.896Z,12.20
2022-12-05T22:11:20.912Z,12.20
2022-12-05T22:13:48.961Z,12.20
2022-12-05T22:16:16.855Z,12.10
2022-12-05T22:18:43.882Z,12.10
2022-12-05T22:21:14.531Z,12.10
2022-12-05T22:23:41.729Z,12.10
2022-12-05T22:26:14.256Z,12.00
2022-12-05T22:28:41.009Z,12.10
2022-12-05T22:31:10.575Z,12.00
2022-12-05T22:33:37.957Z,12.00
2022-12-05T22:36:07.477Z,12.10
2022-12-05T22:38:36.610Z,12.10
2022-12-05T22:41:06.770Z,12.10
2022-12-05T22:43:35.471Z,12.10
2022-12-05T22:46:08.056Z,12.10
2022-12-05T22:48:35.349Z,12.10
2022-12-05T22:51:02.549Z,12.20
2022-12-05T22:53:30.109Z,12.10
2022-12-05T22:56:03.505Z,12.10
2022-12-05T22:58:30.450Z,12.10
2022-12-05T23:00:57.298Z,12.10
2022-12-05T23:03:24.193Z,12.10
2022-12-05T23:05:51.187Z,12.10
2022-12-05T23:08:18.261Z,12.10
2022-12-05T23:10:45.033Z,12.20
2022-12-05T23:13:11.974Z,12.10
2022-12-05T23:15:38.968Z,12.20
2022-12-05T23:18:05.756Z,12.20
2022-12-05T23:20:33.059Z,12.20
2022-12-05T23:22:59.851Z,12.20
2022-12-05T23:25:26.644Z,12.10
2022-12-05T23:27:53.485Z,12.10
2022-12-05T23:30:20.384Z,12.10
2022-12-05T23:32:47.129Z,12.10
2022-12-05T23:35:14.168Z,12.10
2022-12-05T23:37:40.959Z,12.00
2022-12-05T23:40:08.427Z,12.10
2022-12-05T23:42:35.211Z,12.00
2022-12-05T23:45:02.050Z,12.10
2022-12-05T23:47:28.894Z,12.10
2022-12-05T23:49:55.715Z,12.10
2022-12-05T23:52:22.630Z,12.10
2022-12-05T23:54:49.761Z,12.00
2022-12-05T23:57:17.875Z,12.00
2022-12-05T23:59:45.680Z,12.00
